Aviation Digital Data Service (ADDS)

Output produced by METARs form (0957 UTC 19 January 2019)
found at http://www.aviationweather.gov/metar/data/
 
MHSC 190858Z AUTO 02006KT 9999 SCT060 19/19 A3000 RMK AO2 SLP122 T01900188 57011 $
TAF AMD MHSC 182329Z 1821/2003 35015G22KT 9999 BKN060 QNH3002INS 
     BECMG 1903/1904 35012KT 9999 SCT050 BKN200 QNH3010INS 
     BECMG 1915/1916 35012G22KT 9999 SCT060 BKN120 BKN200 QNH3008INS TX29/1821Z
TN18/1908Z LAST NO AMDS AFT 1900 NXT 1913
       
MHLC 190600Z 17002KT 9999 FEW028 BKN080 22/21 Q1015 A2997 NOSIG
TAF MHLC 190400Z 1906/2006 18004KT 9999 FEW026 BKN080 TX28/1919Z TN20/1912Z 
     BECMG 1915/1917 01006KT SCT026TCU 
     BECMG 1923/2001 07006KT SCT026TCU BKN080
       
MHRO 190600Z 16010KT 9999 FEW010CB BKN020 SCT070 25/23 Q1015 A2997 NOSIG
TAF MHRO 190400Z 1906/2006 09012KT 9999 FEW022 BKN080 TX28/1919Z TN24/1912Z 
     BECMG 1911/1913 SCT024 
     BECMG 2001/2003 SCT022TCU BKN080
       
MHLM 190900Z 04002KT 9999 FEW024 BKN080 22/21 Q1014 A2995 NOSIG
TAF MHLM 190400Z 1906/2006 22005KT 9999 FEW025 BKN080 TX27/1921Z TN21/1912Z 
     BECMG 1912/1914 FEW028 
     BECMG 1919/1921 01010KT 
     BECMG 2001/2003 VRB02KT SCT026 BKN080
       
MHTG 190900Z 36008KT 9999 FEW010 BKN026 17/14 Q1018 A3006 NOSIG
TAF MHTG 190400Z 1906/2006 36006KT 9999 FEW010 BKN026 TX26/1920Z TN16/1912Z 
     BECMG 1913/1915 08005KT SCT030 
     BECMG 2001/2003 36010KT SCT026 SCT080